sensor_id;sensor_type;location;lat;lon;timestamp;P1;durP1;ratioP1;P2;durP2;ratioP2
34832;SDS011;55941;50.800;4.342;2022-08-03T00:01:57;4.07;;;1.33;;
34832;SDS011;55941;50.800;4.342;2022-08-03T00:04:23;8.75;;;1.60;;
34832;SDS011;55941;50.800;4.342;2022-08-03T00:06:49;7.80;;;1.48;;
34832;SDS011;55941;50.800;4.342;2022-08-03T00:09:15;8.77;;;1.25;;
34832;SDS011;55941;50.800;4.342;2022-08-03T00:11:40;6.50;;;1.42;;
34832;SDS011;55941;50.800;4.342;2022-08-03T00:14:07;4.82;;;1.40;;
34832;SDS011;55941;50.800;4.342;2022-08-03T00:16:33;5.28;;;1.20;;
34832;SDS011;55941;50.800;4.342;2022-08-03T00:18:59;7.18;;;1.25;;
34832;SDS011;55941;50.800;4.342;2022-08-03T00:21:25;14.20;;;1.90;;
34832;SDS011;55941;50.800;4.342;2022-08-03T00:23:51;10.52;;;1.52;;
34832;SDS011;55941;50.800;4.342;2022-08-03T00:26:17;5.93;;;1.42;;
34832;SDS011;55941;50.800;4.342;2022-08-03T00:28:43;3.30;;;1.38;;
34832;SDS011;55941;50.800;4.342;2022-08-03T00:31:08;9.55;;;1.65;;
34832;SDS011;55941;50.800;4.342;2022-08-03T00:33:34;3.33;;;1.30;;
34832;SDS011;55941;50.800;4.342;2022-08-03T00:36:00;7.63;;;1.48;;
34832;SDS011;55941;50.800;4.342;2022-08-03T00:38:25;7.97;;;1.52;;
34832;SDS011;55941;50.800;4.342;2022-08-03T00:40:51;5.15;;;1.50;;
34832;SDS011;55941;50.800;4.342;2022-08-03T00:43:17;4.57;;;1.23;;
34832;SDS011;55941;50.800;4.342;2022-08-03T00:45:43;8.45;;;1.60;;
34832;SDS011;55941;50.800;4.342;2022-08-03T00:48:09;9.02;;;1.60;;
34832;SDS011;55941;50.800;4.342;2022-08-03T00:50:41;8.55;;;1.95;;
34832;SDS011;55941;50.800;4.342;2022-08-03T00:53:08;10.77;;;1.53;;
34832;SDS011;55941;50.800;4.342;2022-08-03T00:55:37;10.65;;;1.90;;
34832;SDS011;55941;50.800;4.342;2022-08-03T00:58:03;12.25;;;1.80;;
34832;SDS011;55941;50.800;4.342;2022-08-03T01:00:30;16.10;;;2.25;;
34832;SDS011;55941;50.800;4.342;2022-08-03T01:02:57;7.13;;;1.80;;
34832;SDS011;55941;50.800;4.342;2022-08-03T01:05:23;9.32;;;1.90;;
34832;SDS011;55941;50.800;4.342;2022-08-03T01:10:51;8.43;;;1.63;;
34832;SDS011;55941;50.800;4.342;2022-08-03T01:13:29;11.57;;;1.55;;
34832;SDS011;55941;50.800;4.342;2022-08-03T01:18:40;10.80;;;2.35;;
34832;SDS011;55941;50.800;4.342;2022-08-03T01:21:09;7.32;;;1.63;;
34832;SDS011;55941;50.800;4.342;2022-08-03T01:32:01;7.88;;;1.50;;
34832;SDS011;55941;50.800;4.342;2022-08-03T01:34:33;9.27;;;2.00;;
34832;SDS011;55941;50.800;4.342;2022-08-03T01:37:05;7.30;;;1.80;;
34832;SDS011;55941;50.800;4.342;2022-08-03T01:39:33;11.68;;;1.60;;
34832;SDS011;55941;50.800;4.342;2022-08-03T01:42:03;8.32;;;1.77;;
34832;SDS011;55941;50.800;4.342;2022-08-03T01:44:32;6.88;;;1.55;;
34832;SDS011;55941;50.800;4.342;2022-08-03T01:47:04;4.75;;;1.10;;
34832;SDS011;55941;50.800;4.342;2022-08-03T01:49:34;7.22;;;1.63;;
34832;SDS011;55941;50.800;4.342;2022-08-03T01:52:04;6.87;;;1.80;;
34832;SDS011;55941;50.800;4.342;2022-08-03T01:54:40;9.93;;;1.70;;
34832;SDS011;55941;50.800;4.342;2022-08-03T01:57:08;11.00;;;1.80;;
34832;SDS011;55941;50.800;4.342;2022-08-03T01:59:35;10.88;;;1.80;;
34832;SDS011;55941;50.800;4.342;2022-08-03T02:02:06;4.15;;;1.50;;
34832;SDS011;55941;50.800;4.342;2022-08-03T02:04:32;8.23;;;1.83;;
34832;SDS011;55941;50.800;4.342;2022-08-03T02:07:02;8.43;;;1.60;;
34832;SDS011;55941;50.800;4.342;2022-08-03T02:09:28;5.32;;;1.75;;
34832;SDS011;55941;50.800;4.342;2022-08-03T02:11:55;6.78;;;1.60;;
34832;SDS011;55941;50.800;4.342;2022-08-03T02:14:23;9.40;;;1.70;;
34832;SDS011;55941;50.800;4.342;2022-08-03T02:16:50;5.35;;;1.42;;
34832;SDS011;55941;50.800;4.342;2022-08-03T02:19:16;10.45;;;1.67;;
34832;SDS011;55941;50.800;4.342;2022-08-03T02:21:44;11.25;;;1.80;;
34832;SDS011;55941;50.800;4.342;2022-08-03T02:24:11;10.50;;;1.65;;
34832;SDS011;55941;50.800;4.342;2022-08-03T02:26:37;8.93;;;1.30;;
34832;SDS011;55941;50.800;4.342;2022-08-03T02:29:07;13.95;;;1.67;;
34832;SDS011;55941;50.800;4.342;2022-08-03T02:31:39;9.55;;;2.05;;
34832;SDS011;55941;50.800;4.342;2022-08-03T02:34:07;6.53;;;1.33;;
34832;SDS011;55941;50.800;4.342;2022-08-03T02:36:37;7.00;;;1.40;;
34832;SDS011;55941;50.800;4.342;2022-08-03T02:39:06;6.35;;;1.60;;
34832;SDS011;55941;50.800;4.342;2022-08-03T02:41:46;6.18;;;1.42;;
34832;SDS011;55941;50.800;4.342;2022-08-03T02:44:15;3.60;;;1.35;;
34832;SDS011;55941;50.800;4.342;2022-08-03T02:46:45;4.78;;;1.30;;
34832;SDS011;55941;50.800;4.342;2022-08-03T02:49:16;4.30;;;1.10;;
34832;SDS011;55941;50.800;4.342;2022-08-03T02:51:43;4.57;;;1.15;;
34832;SDS011;55941;50.800;4.342;2022-08-03T02:54:11;6.03;;;1.30;;
34832;SDS011;55941;50.800;4.342;2022-08-03T02:56:41;8.10;;;2.00;;
34832;SDS011;55941;50.800;4.342;2022-08-03T02:59:08;6.78;;;1.73;;
34832;SDS011;55941;50.800;4.342;2022-08-03T03:01:36;8.85;;;1.42;;
34832;SDS011;55941;50.800;4.342;2022-08-03T03:04:03;9.52;;;1.60;;
34832;SDS011;55941;50.800;4.342;2022-08-03T03:06:31;21.90;;;1.77;;
34832;SDS011;55941;50.800;4.342;2022-08-03T03:08:57;11.88;;;1.67;;
34832;SDS011;55941;50.800;4.342;2022-08-03T03:11:24;6.03;;;1.50;;
34832;SDS011;55941;50.800;4.342;2022-08-03T03:13:50;9.15;;;1.75;;
34832;SDS011;55941;50.800;4.342;2022-08-03T03:16:17;6.15;;;1.25;;
34832;SDS011;55941;50.800;4.342;2022-08-03T03:18:44;12.18;;;1.50;;
34832;SDS011;55941;50.800;4.342;2022-08-03T03:21:11;7.93;;;1.52;;
34832;SDS011;55941;50.800;4.342;2022-08-03T03:23:40;4.68;;;1.42;;
34832;SDS011;55941;50.800;4.342;2022-08-03T03:26:07;8.15;;;1.73;;
34832;SDS011;55941;50.800;4.342;2022-08-03T03:28:33;10.07;;;2.17;;
34832;SDS011;55941;50.800;4.342;2022-08-03T03:31:04;6.65;;;1.63;;
34832;SDS011;55941;50.800;4.342;2022-08-03T03:33:30;8.65;;;1.90;;
34832;SDS011;55941;50.800;4.342;2022-08-03T03:35:57;6.68;;;1.48;;
34832;SDS011;55941;50.800;4.342;2022-08-03T03:38:24;8.38;;;1.95;;
34832;SDS011;55941;50.800;4.342;2022-08-03T03:40:50;6.07;;;1.80;;
34832;SDS011;55941;50.800;4.342;2022-08-03T03:43:16;8.30;;;1.60;;
34832;SDS011;55941;50.800;4.342;2022-08-03T03:45:45;15.55;;;1.70;;
34832;SDS011;55941;50.800;4.342;2022-08-03T03:48:11;8.25;;;1.35;;
34832;SDS011;55941;50.800;4.342;2022-08-03T03:50:37;7.57;;;1.80;;
34832;SDS011;55941;50.800;4.342;2022-08-03T03:53:07;9.85;;;1.65;;
34832;SDS011;55941;50.800;4.342;2022-08-03T03:58:03;9.50;;;2.05;;
34832;SDS011;55941;50.800;4.342;2022-08-03T04:00:29;10.98;;;2.05;;
34832;SDS011;55941;50.800;4.342;2022-08-03T04:02:55;10.75;;;1.95;;
34832;SDS011;55941;50.800;4.342;2022-08-03T04:05:21;9.82;;;2.10;;
34832;SDS011;55941;50.800;4.342;2022-08-03T04:08:06;7.18;;;1.60;;
34832;SDS011;55941;50.800;4.342;2022-08-03T04:13:42;7.53;;;1.85;;
34832;SDS011;55941;50.800;4.342;2022-08-03T04:16:24;6.03;;;1.35;;
34832;SDS011;55941;50.800;4.342;2022-08-03T04:18:55;6.43;;;1.95;;
34832;SDS011;55941;50.800;4.342;2022-08-03T04:21:24;8.45;;;2.10;;
34832;SDS011;55941;50.800;4.342;2022-08-03T04:23:52;5.70;;;1.50;;
34832;SDS011;55941;50.800;4.342;2022-08-03T04:26:20;7.40;;;1.50;;
34832;SDS011;55941;50.800;4.342;2022-08-03T04:28:47;7.38;;;1.55;;
34832;SDS011;55941;50.800;4.342;2022-08-03T04:31:15;8.93;;;1.98;;
34832;SDS011;55941;50.800;4.342;2022-08-03T04:33:44;11.52;;;1.63;;
34832;SDS011;55941;50.800;4.342;2022-08-03T04:36:13;6.88;;;1.60;;
34832;SDS011;55941;50.800;4.342;2022-08-03T04:41:52;5.32;;;1.55;;
34832;SDS011;55941;50.800;4.342;2022-08-03T04:44:20;7.72;;;1.40;;
34832;SDS011;55941;50.800;4.342;2022-08-03T04:46:49;8.93;;;1.50;;
34832;SDS011;55941;50.800;4.342;2022-08-03T04:49:16;8.15;;;1.67;;
34832;SDS011;55941;50.800;4.342;2022-08-03T04:51:43;13.23;;;2.50;;
34832;SDS011;55941;50.800;4.342;2022-08-03T04:54:13;13.27;;;2.05;;
34832;SDS011;55941;50.800;4.342;2022-08-03T04:56:40;9.18;;;1.88;;
34832;SDS011;55941;50.800;4.342;2022-08-03T04:59:07;11.75;;;2.15;;
34832;SDS011;55941;50.800;4.342;2022-08-03T05:01:33;14.13;;;2.50;;
34832;SDS011;55941;50.800;4.342;2022-08-03T05:03:59;15.05;;;2.13;;
34832;SDS011;55941;50.800;4.342;2022-08-03T05:06:25;11.15;;;2.10;;
34832;SDS011;55941;50.800;4.342;2022-08-03T05:08:51;17.80;;;2.22;;
34832;SDS011;55941;50.800;4.342;2022-08-03T05:11:17;10.52;;;2.53;;
34832;SDS011;55941;50.800;4.342;2022-08-03T05:13:45;14.18;;;1.60;;
34832;SDS011;55941;50.800;4.342;2022-08-03T05:16:12;9.57;;;1.88;;
34832;SDS011;55941;50.800;4.342;2022-08-03T05:18:38;10.75;;;1.70;;
34832;SDS011;55941;50.800;4.342;2022-08-03T05:21:05;8.45;;;2.03;;
34832;SDS011;55941;50.800;4.342;2022-08-03T05:23:30;10.05;;;1.85;;
34832;SDS011;55941;50.800;4.342;2022-08-03T05:25:56;12.40;;;2.28;;
34832;SDS011;55941;50.800;4.342;2022-08-03T05:28:22;12.93;;;2.03;;
34832;SDS011;55941;50.800;4.342;2022-08-03T05:30:48;9.00;;;2.00;;
34832;SDS011;55941;50.800;4.342;2022-08-03T05:33:14;10.05;;;2.17;;
34832;SDS011;55941;50.800;4.342;2022-08-03T05:35:40;10.52;;;1.50;;
34832;SDS011;55941;50.800;4.342;2022-08-03T05:38:05;6.70;;;1.70;;
34832;SDS011;55941;50.800;4.342;2022-08-03T05:40:31;11.18;;;1.85;;
34832;SDS011;55941;50.800;4.342;2022-08-03T05:42:57;11.70;;;1.92;;
34832;SDS011;55941;50.800;4.342;2022-08-03T05:45:23;12.20;;;2.80;;
34832;SDS011;55941;50.800;4.342;2022-08-03T05:47:50;7.43;;;1.70;;
34832;SDS011;55941;50.800;4.342;2022-08-03T05:50:16;15.95;;;2.25;;
34832;SDS011;55941;50.800;4.342;2022-08-03T05:52:43;6.00;;;1.48;;
34832;SDS011;55941;50.800;4.342;2022-08-03T05:55:09;7.43;;;1.60;;
34832;SDS011;55941;50.800;4.342;2022-08-03T05:57:36;8.32;;;1.77;;
34832;SDS011;55941;50.800;4.342;2022-08-03T06:00:09;6.03;;;1.60;;
34832;SDS011;55941;50.800;4.342;2022-08-03T06:02:36;11.10;;;2.25;;
34832;SDS011;55941;50.800;4.342;2022-08-03T06:05:02;9.93;;;2.15;;
34832;SDS011;55941;50.800;4.342;2022-08-03T06:07:28;8.52;;;1.90;;
34832;SDS011;55941;50.800;4.342;2022-08-03T06:09:54;12.27;;;1.80;;
34832;SDS011;55941;50.800;4.342;2022-08-03T06:12:20;6.45;;;1.52;;
34832;SDS011;55941;50.800;4.342;2022-08-03T06:14:45;7.90;;;1.70;;
34832;SDS011;55941;50.800;4.342;2022-08-03T06:17:11;6.55;;;1.48;;
34832;SDS011;55941;50.800;4.342;2022-08-03T06:19:37;8.00;;;1.88;;
34832;SDS011;55941;50.800;4.342;2022-08-03T06:22:03;7.50;;;2.00;;
34832;SDS011;55941;50.800;4.342;2022-08-03T06:24:29;10.00;;;2.13;;
34832;SDS011;55941;50.800;4.342;2022-08-03T06:26:55;5.70;;;1.90;;
34832;SDS011;55941;50.800;4.342;2022-08-03T06:29:21;10.45;;;2.25;;
34832;SDS011;55941;50.800;4.342;2022-08-03T06:31:47;7.55;;;1.98;;
34832;SDS011;55941;50.800;4.342;2022-08-03T06:34:13;6.65;;;1.67;;
34832;SDS011;55941;50.800;4.342;2022-08-03T06:36:39;11.18;;;1.88;;
34832;SDS011;55941;50.800;4.342;2022-08-03T06:39:05;9.93;;;1.98;;
34832;SDS011;55941;50.800;4.342;2022-08-03T06:41:31;6.68;;;1.85;;
34832;SDS011;55941;50.800;4.342;2022-08-03T06:43:57;5.85;;;1.50;;
34832;SDS011;55941;50.800;4.342;2022-08-03T06:46:23;8.77;;;1.88;;
34832;SDS011;55941;50.800;4.342;2022-08-03T06:48:49;12.38;;;2.53;;
34832;SDS011;55941;50.800;4.342;2022-08-03T06:51:16;15.13;;;2.47;;
34832;SDS011;55941;50.800;4.342;2022-08-03T06:53:42;13.98;;;2.03;;
34832;SDS011;55941;50.800;4.342;2022-08-03T06:56:07;15.80;;;2.30;;
34832;SDS011;55941;50.800;4.342;2022-08-03T06:58:33;9.60;;;1.63;;
34832;SDS011;55941;50.800;4.342;2022-08-03T07:00:59;22.02;;;2.00;;
34832;SDS011;55941;50.800;4.342;2022-08-03T07:03:25;12.07;;;2.13;;
34832;SDS011;55941;50.800;4.342;2022-08-03T07:05:50;13.07;;;2.05;;
34832;SDS011;55941;50.800;4.342;2022-08-03T07:08:16;14.38;;;2.22;;
34832;SDS011;55941;50.800;4.342;2022-08-03T07:10:42;15.85;;;2.85;;
34832;SDS011;55941;50.800;4.342;2022-08-03T07:13:09;12.88;;;2.25;;
34832;SDS011;55941;50.800;4.342;2022-08-03T07:15:35;14.73;;;1.90;;
34832;SDS011;55941;50.800;4.342;2022-08-03T07:18:01;16.88;;;2.00;;
34832;SDS011;55941;50.800;4.342;2022-08-03T07:20:27;22.60;;;2.30;;
34832;SDS011;55941;50.800;4.342;2022-08-03T07:22:53;19.23;;;2.20;;
34832;SDS011;55941;50.800;4.342;2022-08-03T07:25:18;18.45;;;2.20;;
34832;SDS011;55941;50.800;4.342;2022-08-03T07:27:45;16.77;;;1.77;;
34832;SDS011;55941;50.800;4.342;2022-08-03T07:30:11;18.20;;;1.90;;
34832;SDS011;55941;50.800;4.342;2022-08-03T07:32:38;15.18;;;2.10;;
34832;SDS011;55941;50.800;4.342;2022-08-03T07:35:05;13.63;;;1.98;;
34832;SDS011;55941;50.800;4.342;2022-08-03T07:37:31;9.43;;;1.77;;
34832;SDS011;55941;50.800;4.342;2022-08-03T07:39:58;12.52;;;1.88;;
34832;SDS011;55941;50.800;4.342;2022-08-03T07:42:28;14.25;;;1.63;;
34832;SDS011;55941;50.800;4.342;2022-08-03T07:44:55;17.13;;;1.75;;
34832;SDS011;55941;50.800;4.342;2022-08-03T07:47:22;15.48;;;1.63;;
34832;SDS011;55941;50.800;4.342;2022-08-03T07:49:50;10.45;;;1.65;;
34832;SDS011;55941;50.800;4.342;2022-08-03T07:52:16;10.15;;;1.90;;
34832;SDS011;55941;50.800;4.342;2022-08-03T07:55:01;11.77;;;1.35;;
34832;SDS011;55941;50.800;4.342;2022-08-03T07:57:27;16.25;;;1.92;;
34832;SDS011;55941;50.800;4.342;2022-08-03T07:59:53;12.57;;;1.63;;
34832;SDS011;55941;50.800;4.342;2022-08-03T08:02:20;20.98;;;2.00;;
34832;SDS011;55941;50.800;4.342;2022-08-03T08:04:46;14.80;;;1.90;;
34832;SDS011;55941;50.800;4.342;2022-08-03T08:07:12;17.85;;;2.00;;
34832;SDS011;55941;50.800;4.342;2022-08-03T08:09:37;10.68;;;1.50;;
34832;SDS011;55941;50.800;4.342;2022-08-03T08:12:03;14.73;;;2.40;;
34832;SDS011;55941;50.800;4.342;2022-08-03T08:14:33;15.48;;;2.50;;
34832;SDS011;55941;50.800;4.342;2022-08-03T08:16:59;18.10;;;2.50;;
34832;SDS011;55941;50.800;4.342;2022-08-03T08:19:25;18.55;;;3.00;;
34832;SDS011;55941;50.800;4.342;2022-08-03T08:21:51;15.35;;;1.80;;
34832;SDS011;55941;50.800;4.342;2022-08-03T08:24:17;15.98;;;2.13;;
34832;SDS011;55941;50.800;4.342;2022-08-03T08:26:43;16.98;;;2.00;;
34832;SDS011;55941;50.800;4.342;2022-08-03T08:29:09;14.88;;;2.53;;
34832;SDS011;55941;50.800;4.342;2022-08-03T08:31:34;18.60;;;1.92;;
34832;SDS011;55941;50.800;4.342;2022-08-03T08:34:00;22.58;;;2.05;;
34832;SDS011;55941;50.800;4.342;2022-08-03T08:36:34;11.18;;;1.60;;
34832;SDS011;55941;50.800;4.342;2022-08-03T08:39:02;20.27;;;2.63;;
34832;SDS011;55941;50.800;4.342;2022-08-03T08:41:28;29.58;;;2.45;;
34832;SDS011;55941;50.800;4.342;2022-08-03T08:43:57;16.35;;;2.53;;
34832;SDS011;55941;50.800;4.342;2022-08-03T08:46:24;17.23;;;2.30;;
34832;SDS011;55941;50.800;4.342;2022-08-03T08:48:50;15.45;;;2.30;;
34832;SDS011;55941;50.800;4.342;2022-08-03T08:51:18;24.05;;;2.45;;
34832;SDS011;55941;50.800;4.342;2022-08-03T08:56:15;19.20;;;2.38;;
34832;SDS011;55941;50.800;4.342;2022-08-03T08:58:52;13.52;;;2.17;;
34832;SDS011;55941;50.800;4.342;2022-08-03T09:01:23;20.52;;;2.33;;
34832;SDS011;55941;50.800;4.342;2022-08-03T09:03:49;20.92;;;2.10;;
34832;SDS011;55941;50.800;4.342;2022-08-03T09:06:16;21.83;;;2.05;;
34832;SDS011;55941;50.800;4.342;2022-08-03T09:08:41;18.95;;;2.50;;
34832;SDS011;55941;50.800;4.342;2022-08-03T09:11:08;15.30;;;1.77;;
34832;SDS011;55941;50.800;4.342;2022-08-03T09:13:34;11.25;;;2.30;;
34832;SDS011;55941;50.800;4.342;2022-08-03T09:16:20;16.60;;;2.17;;
34832;SDS011;55941;50.800;4.342;2022-08-03T09:18:47;14.52;;;2.00;;
34832;SDS011;55941;50.800;4.342;2022-08-03T09:21:15;12.27;;;2.33;;
34832;SDS011;55941;50.800;4.342;2022-08-03T09:23:47;15.02;;;2.08;;
34832;SDS011;55941;50.800;4.342;2022-08-03T09:26:27;11.85;;;3.47;;
34832;SDS011;55941;50.800;4.342;2022-08-03T09:28:58;19.02;;;2.83;;
34832;SDS011;55941;50.800;4.342;2022-08-03T09:31:34;8.32;;;1.55;;
34832;SDS011;55941;50.800;4.342;2022-08-03T09:34:08;14.43;;;1.73;;
34832;SDS011;55941;50.800;4.342;2022-08-03T09:39:07;11.43;;;3.03;;
34832;SDS011;55941;50.800;4.342;2022-08-03T09:41:38;13.77;;;1.80;;
34832;SDS011;55941;50.800;4.342;2022-08-03T09:44:05;11.23;;;1.92;;
34832;SDS011;55941;50.800;4.342;2022-08-03T09:46:31;13.32;;;5.18;;
34832;SDS011;55941;50.800;4.342;2022-08-03T09:49:11;7.97;;;2.20;;
34832;SDS011;55941;50.800;4.342;2022-08-03T09:51:38;12.88;;;1.83;;
34832;SDS011;55941;50.800;4.342;2022-08-03T09:54:04;15.48;;;1.50;;
34832;SDS011;55941;50.800;4.342;2022-08-03T09:56:44;12.45;;;1.40;;
34832;SDS011;55941;50.800;4.342;2022-08-03T09:59:21;13.55;;;1.35;;
34832;SDS011;55941;50.800;4.342;2022-08-03T10:01:51;15.32;;;1.20;;
34832;SDS011;55941;50.800;4.342;2022-08-03T10:04:19;12.25;;;1.50;;
34832;SDS011;55941;50.800;4.342;2022-08-03T10:07:00;6.82;;;1.42;;
34832;SDS011;55941;50.800;4.342;2022-08-03T10:09:34;8.55;;;1.23;;
34832;SDS011;55941;50.800;4.342;2022-08-03T10:12:10;10.30;;;1.25;;
34832;SDS011;55941;50.800;4.342;2022-08-03T10:14:38;5.20;;;1.10;;
34832;SDS011;55941;50.800;4.342;2022-08-03T10:17:05;7.30;;;1.02;;
34832;SDS011;55941;50.800;4.342;2022-08-03T10:19:32;5.35;;;1.00;;
34832;SDS011;55941;50.800;4.342;2022-08-03T10:22:03;13.00;;;2.22;;
34832;SDS011;55941;50.800;4.342;2022-08-03T10:24:36;5.07;;;1.27;;
34832;SDS011;55941;50.800;4.342;2022-08-03T10:27:07;8.73;;;1.25;;
34832;SDS011;55941;50.800;4.342;2022-08-03T10:29:39;2.90;;;1.00;;
34832;SDS011;55941;50.800;4.342;2022-08-03T10:32:12;6.15;;;1.00;;
34832;SDS011;55941;50.800;4.342;2022-08-03T10:34:45;8.65;;;1.42;;
34832;SDS011;55941;50.800;4.342;2022-08-03T10:37:16;9.50;;;1.15;;
34832;SDS011;55941;50.800;4.342;2022-08-03T10:39:47;4.05;;;1.20;;
34832;SDS011;55941;50.800;4.342;2022-08-03T10:42:20;7.18;;;1.27;;
34832;SDS011;55941;50.800;4.342;2022-08-03T10:44:49;16.58;;;1.40;;
34832;SDS011;55941;50.800;4.342;2022-08-03T10:47:25;7.20;;;1.35;;
34832;SDS011;55941;50.800;4.342;2022-08-03T10:49:51;5.22;;;1.38;;
34832;SDS011;55941;50.800;4.342;2022-08-03T10:52:17;6.28;;;1.63;;
34832;SDS011;55941;50.800;4.342;2022-08-03T10:54:44;7.78;;;1.20;;
34832;SDS011;55941;50.800;4.342;2022-08-03T11:00:13;5.88;;;1.23;;
34832;SDS011;55941;50.800;4.342;2022-08-03T11:03:00;12.90;;;1.33;;
34832;SDS011;55941;50.800;4.342;2022-08-03T11:05:30;5.80;;;1.23;;
34832;SDS011;55941;50.800;4.342;2022-08-03T11:10:53;6.50;;;1.10;;
34832;SDS011;55941;50.800;4.342;2022-08-03T11:13:21;7.18;;;1.20;;
34832;SDS011;55941;50.800;4.342;2022-08-03T11:15:49;5.45;;;1.00;;
34832;SDS011;55941;50.800;4.342;2022-08-03T11:18:17;4.35;;;0.93;;
34832;SDS011;55941;50.800;4.342;2022-08-03T11:23:10;6.55;;;1.05;;
34832;SDS011;55941;50.800;4.342;2022-08-03T11:28:34;10.15;;;1.00;;
34832;SDS011;55941;50.800;4.342;2022-08-03T11:34:10;10.75;;;1.10;;
34832;SDS011;55941;50.800;4.342;2022-08-03T11:39:41;6.60;;;0.70;;
34832;SDS011;55941;50.800;4.342;2022-08-03T11:42:52;10.20;;;1.00;;
34832;SDS011;55941;50.800;4.342;2022-08-03T11:44:59;2.00;;;0.50;;
34832;SDS011;55941;50.800;4.342;2022-08-03T11:47:26;6.10;;;0.80;;
34832;SDS011;55941;50.800;4.342;2022-08-03T11:49:53;9.13;;;1.30;;
34832;SDS011;55941;50.800;4.342;2022-08-03T11:52:23;6.30;;;0.75;;
34832;SDS011;55941;50.800;4.342;2022-08-03T11:54:51;4.63;;;1.00;;
34832;SDS011;55941;50.800;4.342;2022-08-03T11:57:30;3.58;;;0.98;;
34832;SDS011;55941;50.800;4.342;2022-08-03T11:59:57;14.10;;;1.13;;
34832;SDS011;55941;50.800;4.342;2022-08-03T12:02:23;6.63;;;1.10;;
34832;SDS011;55941;50.800;4.342;2022-08-03T12:04:56;6.28;;;0.60;;
34832;SDS011;55941;50.800;4.342;2022-08-03T12:07:24;6.45;;;1.13;;
34832;SDS011;55941;50.800;4.342;2022-08-03T12:10:06;10.48;;;1.00;;
34832;SDS011;55941;50.800;4.342;2022-08-03T12:12:34;8.82;;;1.08;;
34832;SDS011;55941;50.800;4.342;2022-08-03T12:15:01;11.57;;;0.95;;
34832;SDS011;55941;50.800;4.342;2022-08-03T12:17:31;12.07;;;1.35;;
34832;SDS011;55941;50.800;4.342;2022-08-03T12:19:58;7.20;;;1.27;;
34832;SDS011;55941;50.800;4.342;2022-08-03T12:22:37;7.50;;;0.98;;
34832;SDS011;55941;50.800;4.342;2022-08-03T12:25:05;7.57;;;0.93;;
34832;SDS011;55941;50.800;4.342;2022-08-03T12:27:32;9.85;;;0.90;;
34832;SDS011;55941;50.800;4.342;2022-08-03T12:29:58;6.20;;;0.77;;
34832;SDS011;55941;50.800;4.342;2022-08-03T12:32:29;7.07;;;1.05;;
34832;SDS011;55941;50.800;4.342;2022-08-03T12:34:55;10.15;;;1.10;;
34832;SDS011;55941;50.800;4.342;2022-08-03T12:37:24;7.57;;;0.95;;
34832;SDS011;55941;50.800;4.342;2022-08-03T12:39:51;3.90;;;0.85;;
34832;SDS011;55941;50.800;4.342;2022-08-03T12:42:18;10.02;;;0.90;;
34832;SDS011;55941;50.800;4.342;2022-08-03T12:44:44;11.38;;;0.93;;
34832;SDS011;55941;50.800;4.342;2022-08-03T12:47:12;3.88;;;0.85;;
34832;SDS011;55941;50.800;4.342;2022-08-03T12:49:46;8.18;;;0.95;;
34832;SDS011;55941;50.800;4.342;2022-08-03T12:52:17;12.55;;;1.00;;
34832;SDS011;55941;50.800;4.342;2022-08-03T12:54:55;4.03;;;1.05;;
34832;SDS011;55941;50.800;4.342;2022-08-03T12:57:22;9.20;;;0.90;;
34832;SDS011;55941;50.800;4.342;2022-08-03T12:59:49;8.23;;;1.02;;
34832;SDS011;55941;50.800;4.342;2022-08-03T13:02:15;12.13;;;1.30;;
34832;SDS011;55941;50.800;4.342;2022-08-03T13:04:42;5.53;;;0.98;;
34832;SDS011;55941;50.800;4.342;2022-08-03T13:07:12;6.13;;;1.05;;
34832;SDS011;55941;50.800;4.342;2022-08-03T13:09:56;10.27;;;1.10;;
34832;SDS011;55941;50.800;4.342;2022-08-03T13:12:23;10.90;;;1.05;;
34832;SDS011;55941;50.800;4.342;2022-08-03T13:14:52;3.88;;;0.90;;
34832;SDS011;55941;50.800;4.342;2022-08-03T13:17:20;7.53;;;1.13;;
34832;SDS011;55941;50.800;4.342;2022-08-03T13:19:47;6.93;;;1.10;;
34832;SDS011;55941;50.800;4.342;2022-08-03T13:24:43;15.45;;;0.93;;
34832;SDS011;55941;50.800;4.342;2022-08-03T13:27:10;7.90;;;1.55;;
34832;SDS011;55941;50.800;4.342;2022-08-03T13:29:36;7.78;;;0.80;;
34832;SDS011;55941;50.800;4.342;2022-08-03T13:32:02;11.30;;;1.25;;
34832;SDS011;55941;50.800;4.342;2022-08-03T13:34:29;1.42;;;0.60;;
34832;SDS011;55941;50.800;4.342;2022-08-03T13:36:55;8.05;;;0.77;;
34832;SDS011;55941;50.800;4.342;2022-08-03T13:39:21;4.47;;;0.80;;
34832;SDS011;55941;50.800;4.342;2022-08-03T13:41:47;15.48;;;1.20;;
34832;SDS011;55941;50.800;4.342;2022-08-03T13:44:13;3.47;;;0.70;;
34832;SDS011;55941;50.800;4.342;2022-08-03T13:46:39;5.93;;;0.90;;
34832;SDS011;55941;50.800;4.342;2022-08-03T13:49:05;4.13;;;0.80;;
34832;SDS011;55941;50.800;4.342;2022-08-03T13:51:33;4.25;;;0.93;;
34832;SDS011;55941;50.800;4.342;2022-08-03T13:53:59;5.47;;;0.85;;
34832;SDS011;55941;50.800;4.342;2022-08-03T13:56:25;7.75;;;0.88;;
34832;SDS011;55941;50.800;4.342;2022-08-03T13:58:51;8.75;;;0.82;;
34832;SDS011;55941;50.800;4.342;2022-08-03T14:01:18;5.10;;;0.90;;
34832;SDS011;55941;50.800;4.342;2022-08-03T14:03:43;5.70;;;0.80;;
34832;SDS011;55941;50.800;4.342;2022-08-03T14:06:12;11.32;;;1.00;;
34832;SDS011;55941;50.800;4.342;2022-08-03T14:08:38;6.00;;;1.08;;
34832;SDS011;55941;50.800;4.342;2022-08-03T14:11:04;8.35;;;0.95;;
34832;SDS011;55941;50.800;4.342;2022-08-03T14:13:30;7.45;;;0.88;;
34832;SDS011;55941;50.800;4.342;2022-08-03T14:15:56;9.48;;;1.40;;
34832;SDS011;55941;50.800;4.342;2022-08-03T14:18:21;10.38;;;1.10;;
34832;SDS011;55941;50.800;4.342;2022-08-03T14:20:47;2.45;;;0.88;;
34832;SDS011;55941;50.800;4.342;2022-08-03T14:23:13;4.03;;;0.85;;
34832;SDS011;55941;50.800;4.342;2022-08-03T14:25:40;6.40;;;0.95;;
34832;SDS011;55941;50.800;4.342;2022-08-03T14:28:06;3.83;;;0.68;;
34832;SDS011;55941;50.800;4.342;2022-08-03T14:30:32;3.22;;;0.77;;
34832;SDS011;55941;50.800;4.342;2022-08-03T14:32:59;8.50;;;1.00;;
34832;SDS011;55941;50.800;4.342;2022-08-03T14:35:24;5.65;;;0.70;;
34832;SDS011;55941;50.800;4.342;2022-08-03T14:37:50;4.97;;;1.20;;
34832;SDS011;55941;50.800;4.342;2022-08-03T14:40:16;3.55;;;0.90;;
34832;SDS011;55941;50.800;4.342;2022-08-03T14:42:43;3.00;;;0.98;;
34832;SDS011;55941;50.800;4.342;2022-08-03T14:45:09;5.15;;;0.82;;
34832;SDS011;55941;50.800;4.342;2022-08-03T14:47:35;3.15;;;0.90;;
34832;SDS011;55941;50.800;4.342;2022-08-03T14:50:00;4.03;;;0.77;;
34832;SDS011;55941;50.800;4.342;2022-08-03T14:52:29;8.25;;;0.85;;
34832;SDS011;55941;50.800;4.342;2022-08-03T14:54:55;3.25;;;1.08;;
34832;SDS011;55941;50.800;4.342;2022-08-03T14:57:21;6.07;;;0.88;;
34832;SDS011;55941;50.800;4.342;2022-08-03T14:59:47;4.03;;;0.98;;
34832;SDS011;55941;50.800;4.342;2022-08-03T15:02:13;5.78;;;0.80;;
34832;SDS011;55941;50.800;4.342;2022-08-03T15:04:38;4.60;;;0.93;;
34832;SDS011;55941;50.800;4.342;2022-08-03T15:07:04;2.33;;;0.80;;
34832;SDS011;55941;50.800;4.342;2022-08-03T15:09:30;2.90;;;0.82;;
34832;SDS011;55941;50.800;4.342;2022-08-03T15:11:56;3.28;;;0.77;;
34832;SDS011;55941;50.800;4.342;2022-08-03T15:14:22;8.40;;;0.80;;
34832;SDS011;55941;50.800;4.342;2022-08-03T15:16:48;4.72;;;1.02;;
34832;SDS011;55941;50.800;4.342;2022-08-03T15:19:13;4.82;;;0.75;;
34832;SDS011;55941;50.800;4.342;2022-08-03T15:21:39;1.65;;;0.63;;
34832;SDS011;55941;50.800;4.342;2022-08-03T15:24:05;3.63;;;0.80;;
34832;SDS011;55941;50.800;4.342;2022-08-03T15:26:30;4.28;;;0.88;;
34832;SDS011;55941;50.800;4.342;2022-08-03T15:28:56;12.48;;;1.60;;
34832;SDS011;55941;50.800;4.342;2022-08-03T15:31:23;10.05;;;0.82;;
34832;SDS011;55941;50.800;4.342;2022-08-03T15:33:49;5.72;;;1.48;;
34832;SDS011;55941;50.800;4.342;2022-08-03T15:36:16;4.78;;;0.82;;